createdAt,value
2022-08-16T00:02:03.385Z,100317.16
2022-08-16T00:07:29.299Z,100274.34
2022-08-16T00:12:52.783Z,100377.72
2022-08-16T00:17:56.569Z,100324.66
2022-08-16T00:23:46.280Z,100274.88
2022-08-16T00:28:54.585Z,100314.00
2022-08-16T00:33:53.096Z,100320.47
2022-08-16T00:38:54.137Z,100334.03
2022-08-16T00:44:13.885Z,100390.72
2022-08-16T00:49:17.618Z,100340.53
2022-08-16T00:54:16.177Z,100337.38
2022-08-16T00:59:25.477Z,100355.28
2022-08-16T01:04:34.378Z,100360.84
2022-08-16T01:09:37.425Z,100334.25
2022-08-16T01:14:43.786Z,100369.53
2022-08-16T01:19:45.116Z,100292.25
2022-08-16T01:24:54.083Z,100318.00
2022-08-16T01:29:59.879Z,100357.25
2022-08-16T01:34:59.046Z,100295.78
2022-08-16T01:39:59.635Z,100351.97
2022-08-16T01:44:57.639Z,100361.06
2022-08-16T01:50:42.631Z,100347.56
2022-08-16T01:55:23.413Z,100393.41
2022-08-16T02:00:55.007Z,100396.94
2022-08-16T02:05:57.346Z,100326.25
2022-08-16T02:10:58.154Z,100322.59
2022-08-16T02:15:55.746Z,100392.09
2022-08-16T02:21:10.077Z,100319.19
2022-08-16T02:26:09.153Z,100366.84
2022-08-16T02:31:17.730Z,100350.94
2022-08-16T02:36:48.010Z,100366.72
2022-08-16T02:41:44.845Z,100320.59
2022-08-16T02:46:53.768Z,100368.63
2022-08-16T02:51:53.501Z,100382.22
2022-08-16T02:56:54.372Z,100371.88
2022-08-16T03:02:08.257Z,100412.91
2022-08-16T03:07:08.153Z,100399.56
2022-08-16T03:12:30.442Z,100411.16
2022-08-16T03:17:37.170Z,100354.41
2022-08-16T03:22:56.831Z,100419.69
2022-08-16T03:27:55.589Z,100383.09
2022-08-16T03:32:58.002Z,100407.50
2022-08-16T03:38:34.055Z,100418.88
2022-08-16T03:43:51.618Z,100338.03
2022-08-16T03:48:55.223Z,100385.22
2022-08-16T03:54:01.096Z,100426.97
2022-08-16T03:59:06.027Z,100365.88
2022-08-16T04:04:12.818Z,100377.25
2022-08-16T04:09:24.067Z,100361.13
2022-08-16T04:14:38.115Z,100447.69
2022-08-16T04:20:48.466Z,100374.31
2022-08-16T04:25:49.426Z,100417.38
2022-08-16T04:30:53.817Z,100454.38
2022-08-16T04:35:55.070Z,100404.06
2022-08-16T04:42:00.083Z,100458.78
2022-08-16T04:47:35.414Z,100443.75
2022-08-16T04:52:50.255Z,100462.31
2022-08-16T04:58:03.162Z,100410.66
2022-08-16T05:04:01.868Z,100407.34
2022-08-16T05:09:16.467Z,100398.47
2022-08-16T05:15:02.145Z,100458.94
2022-08-16T05:20:38.964Z,100397.53
2022-08-16T05:25:47.864Z,100422.72
2022-08-16T05:30:50.891Z,100459.41
2022-08-16T05:36:03.751Z,100417.41
2022-08-16T05:41:13.958Z,100394.00
2022-08-16T05:46:30.395Z,100415.16
2022-08-16T05:57:47.773Z,100450.09
2022-08-16T06:02:54.519Z,100467.09
2022-08-16T06:08:31.864Z,100473.97
2022-08-16T06:13:41.953Z,100401.53
2022-08-16T06:18:51.199Z,100431.44
2022-08-16T06:24:01.144Z,100442.91
2022-08-16T06:29:50.003Z,100461.22
2022-08-16T06:34:55.739Z,100464.91
2022-08-16T06:40:22.285Z,100465.66
2022-08-16T06:46:38.810Z,100464.63
2022-08-16T06:52:57.915Z,100450.06
2022-08-16T06:58:21.869Z,100396.56
2022-08-16T07:03:55.012Z,100437.56
2022-08-16T07:09:41.916Z,100456.72
2022-08-16T07:14:41.513Z,100449.44
2022-08-16T07:25:59.852Z,100443.59
2022-08-16T07:31:05.720Z,100386.53
2022-08-16T07:36:59.007Z,100409.34
2022-08-16T07:42:28.583Z,100437.56
2022-08-16T07:48:00.501Z,100393.06
2022-08-16T07:53:18.766Z,100437.97
2022-08-16T07:58:39.469Z,100433.56
2022-08-16T08:04:08.671Z,100438.22
2022-08-16T08:09:35.896Z,100377.72
2022-08-16T08:14:59.247Z,100406.41
2022-08-16T08:20:00.615Z,100413.16
2022-08-16T08:25:14.256Z,100428.06
2022-08-16T08:30:50.636Z,100434.06
2022-08-16T08:35:56.616Z,100431.31
2022-08-16T08:40:58.056Z,100419.84
2022-08-16T08:52:47.854Z,100352.63
2022-08-16T08:58:00.004Z,100373.56
2022-08-16T09:03:28.013Z,100420.38
2022-08-16T09:08:32.073Z,100397.41
2022-08-16T09:13:37.536Z,100408.25
2022-08-16T09:18:59.658Z,100398.41
2022-08-16T09:24:12.111Z,100377.88
2022-08-16T09:29:44.472Z,100415.84
2022-08-16T09:34:47.800Z,100405.53
2022-08-16T09:39:50.024Z,100403.00
2022-08-16T09:45:11.026Z,100339.72
2022-08-16T09:55:44.205Z,100384.34
2022-08-16T10:00:45.337Z,100375.16
2022-08-16T10:05:46.337Z,100381.91
2022-08-16T10:11:06.886Z,100343.53
2022-08-16T10:21:08.944Z,100349.63
2022-08-16T10:27:17.381Z,100335.94
2022-08-16T10:31:44.241Z,100344.16
2022-08-16T10:36:42.142Z,100374.34
2022-08-16T10:41:42.639Z,100349.56
2022-08-16T10:46:43.334Z,100361.91
2022-08-16T10:52:03.105Z,100375.59
2022-08-16T10:57:04.867Z,100340.00
2022-08-16T11:02:59.864Z,100341.78
2022-08-16T11:12:43.878Z,100294.19
2022-08-16T11:17:44.989Z,100373.44
2022-08-16T11:22:59.156Z,100347.69
2022-08-16T11:28:00.590Z,100332.00
2022-08-16T11:33:01.182Z,100275.09
2022-08-16T11:38:06.134Z,100282.31
2022-08-16T11:43:36.948Z,100348.19
2022-08-16T11:48:47.248Z,100359.75
2022-08-16T11:53:47.154Z,100320.22
2022-08-16T11:58:51.480Z,100338.91
2022-08-16T12:03:57.871Z,100336.13
2022-08-16T12:09:02.106Z,100284.50
2022-08-16T12:14:01.448Z,100249.63
2022-08-16T12:19:04.873Z,100264.44
2022-08-16T12:24:05.276Z,100270.22
2022-08-16T12:29:03.450Z,100310.00
2022-08-16T12:34:00.927Z,100293.47
2022-08-16T12:38:59.132Z,100303.13
2022-08-16T12:44:01.081Z,100299.31
2022-08-16T12:49:00.708Z,100271.81
2022-08-16T12:54:08.498Z,100275.41
2022-08-16T12:59:09.049Z,100288.59
2022-08-16T13:04:12.167Z,100291.28
2022-08-16T13:09:19.978Z,100284.88
2022-08-16T13:14:30.855Z,100271.69
2022-08-16T13:19:49.778Z,100254.06
2022-08-16T13:24:50.192Z,100304.59
2022-08-16T13:29:58.085Z,100260.25
2022-08-16T13:34:59.871Z,100231.94
2022-08-16T13:39:59.058Z,100281.91
2022-08-16T13:44:58.597Z,100292.75
2022-08-16T13:49:56.340Z,100261.81
2022-08-16T13:54:56.920Z,100249.28
2022-08-16T14:00:04.578Z,100285.31
2022-08-16T14:05:11.622Z,100251.53
2022-08-16T14:10:12.217Z,100291.09
2022-08-16T14:15:15.539Z,100291.59
2022-08-16T14:20:19.120Z,100253.88
2022-08-16T14:25:19.111Z,100279.63
2022-08-16T14:30:19.966Z,100260.94
2022-08-16T14:35:36.724Z,100271.03
2022-08-16T14:40:42.994Z,100279.75
2022-08-16T14:45:44.839Z,100272.03
2022-08-16T14:50:58.225Z,100246.09
2022-08-16T14:55:56.144Z,100256.28
2022-08-16T15:01:01.700Z,100252.44
2022-08-16T15:06:17.334Z,100261.19
2022-08-16T15:11:44.906Z,100250.97
2022-08-16T15:16:46.068Z,100235.16
2022-08-16T15:21:44.877Z,100244.09
2022-08-16T15:26:45.087Z,100249.69
2022-08-16T15:31:49.845Z,100210.50
2022-08-16T15:37:10.621Z,100220.00
2022-08-16T15:42:11.218Z,100233.88
2022-08-16T15:47:35.227Z,100229.63
2022-08-16T15:52:36.886Z,100229.13
2022-08-16T15:57:48.334Z,100205.97
2022-08-16T16:02:49.540Z,100248.72
2022-08-16T16:07:56.217Z,100259.34
2022-08-16T16:13:08.871Z,100263.03
2022-08-16T16:18:18.844Z,100191.22
2022-08-16T16:23:30.432Z,100191.31
2022-08-16T16:29:05.074Z,100269.38
2022-08-16T16:34:04.751Z,100262.44
2022-08-16T16:39:09.939Z,100241.03
2022-08-16T16:44:09.594Z,100241.28
2022-08-16T16:49:18.823Z,100210.78
2022-08-16T16:54:27.816Z,100264.19
2022-08-16T16:59:30.483Z,100281.81
2022-08-16T17:04:31.703Z,100265.50
2022-08-16T17:09:30.890Z,100240.97
2022-08-16T17:14:49.554Z,100262.47
2022-08-16T17:19:48.767Z,100290.72
2022-08-16T17:24:56.342Z,100250.53
2022-08-16T17:29:54.131Z,100305.09
2022-08-16T17:34:52.872Z,100307.13
2022-08-16T17:39:59.917Z,100220.41
2022-08-16T17:45:04.370Z,100259.06
2022-08-16T17:50:07.128Z,100300.69
2022-08-16T17:55:27.687Z,100271.34
2022-08-16T18:00:31.219Z,100292.41
2022-08-16T18:05:28.986Z,100357.91
2022-08-16T18:10:33.407Z,100361.31
2022-08-16T18:15:34.061Z,100366.25
2022-08-16T18:20:51.912Z,100370.09
2022-08-16T18:25:53.862Z,100344.56
2022-08-16T18:30:52.888Z,100353.94
2022-08-16T18:35:57.105Z,100389.25
2022-08-16T18:40:55.819Z,100353.53
2022-08-16T18:45:54.719Z,100387.50
2022-08-16T18:51:00.009Z,100400.25
2022-08-16T18:56:11.826Z,100407.03
2022-08-16T19:01:09.139Z,100380.69
2022-08-16T19:06:14.926Z,100410.34
2022-08-16T19:11:23.734Z,100364.66
2022-08-16T19:16:26.192Z,100387.94
2022-08-16T19:21:24.026Z,100378.28
2022-08-16T19:26:26.004Z,100376.47
2022-08-16T19:31:28.014Z,100352.78
2022-08-16T19:36:30.954Z,100418.56
2022-08-16T19:41:36.035Z,100397.75
2022-08-16T19:46:35.849Z,100439.84
2022-08-16T19:51:34.127Z,100435.28
2022-08-16T19:56:31.951Z,100434.88
2022-08-16T20:01:30.187Z,100444.66
2022-08-16T20:06:37.854Z,100414.97
2022-08-16T20:11:38.331Z,100348.78
2022-08-16T20:16:35.760Z,100441.44
2022-08-16T20:21:35.797Z,100447.22
2022-08-16T20:26:34.120Z,100437.25
2022-08-16T20:31:35.918Z,100439.97
2022-08-16T20:36:33.268Z,100398.94
2022-08-16T20:41:35.302Z,100445.78
2022-08-16T20:46:33.157Z,100443.50
2022-08-16T20:51:47.003Z,100480.97
2022-08-16T20:56:49.120Z,100475.56
2022-08-16T21:01:50.065Z,100478.47
2022-08-16T21:06:54.283Z,100441.19
2022-08-16T21:11:53.718Z,100444.47
2022-08-16T21:16:51.811Z,100470.31
2022-08-16T21:21:49.254Z,100460.50
2022-08-16T21:26:56.135Z,100419.84
2022-08-16T21:31:57.070Z,100446.50
2022-08-16T21:36:54.868Z,100416.47
2022-08-16T21:41:51.811Z,100463.13
2022-08-16T21:46:48.918Z,100471.63
2022-08-16T21:51:47.921Z,100388.63
2022-08-16T21:56:45.039Z,100378.59
2022-08-16T22:01:46.292Z,100454.03
2022-08-16T22:06:43.951Z,100485.09
2022-08-16T22:11:42.682Z,100432.72
2022-08-16T22:16:43.056Z,100481.28
2022-08-16T22:21:41.316Z,100461.00
2022-08-16T22:26:43.108Z,100459.31
2022-08-16T22:31:42.687Z,100485.34
2022-08-16T22:36:40.424Z,100435.69
2022-08-16T22:41:42.356Z,100435.16
2022-08-16T22:46:41.431Z,100442.25
2022-08-16T22:51:40.728Z,100484.59
2022-08-16T22:56:37.788Z,100474.34
2022-08-16T23:01:35.225Z,100454.28
2022-08-16T23:06:34.351Z,100477.88
2022-08-16T23:11:32.323Z,100447.16
2022-08-16T23:16:33.753Z,100403.31
2022-08-16T23:21:38.126Z,100472.97
2022-08-16T23:26:46.830Z,100452.28
2022-08-16T23:31:45.947Z,100458.59
2022-08-16T23:36:46.495Z,100494.47
2022-08-16T23:41:43.996Z,100355.94
2022-08-16T23:46:41.650Z,100434.97
2022-08-16T23:51:38.802Z,100485.31
2022-08-16T23:56:40.877Z,100428.75
